Terminal Aerodrome Forecast
Issued by NWS Cleveland, OH

Home | Current Version | Previous Version | Text Only | Print | Product List | Glossary On
Versions: 1 2 3 4 5 6 7 8 9 10 11 12 13 14 15 16 17 18 19
000
FTUS41 KCLE 211400 AAA
TAFMFD
TAF AMD
KMFD 211405Z 2114/2212 26012G22KT P6SM SCT015 OVC035
      TEMPO 2115/2118 BKN015 OVC025
     FM212000 30015G22KT P6SM VCSH BKN035
     FM220100 33010KT P6SM BKN035=

USA.gov is the U.S. government's official web portal to all federal, state and local government web resources and services.